CheckWX is a tool to help pilots better visualize weather data.  It is not intended as a substitute for an official pre-flight weather briefing.

03:43:42 UTC

KTPH TAF
Tonopah Airport
Tonopah, Nevada, USA
KTPH 072326Z 0800/0824 18014KT P6SM FEW025 BKN035 FM080200 16009KT P6SM SCT015 BKN025 FM081000 36006KT P6SM VCSH SCT010 OVC025

Dec-8@
00:00 UTC

Dec-8 @ 00:00 UTC

Dec-8@
02:00 UTC

Dec-8 @ 02:00 UTC

KTPH 072326Z 0800/0824 18014KT P6SM FEW025 BKN035

Expired

Wind
  • 180° at 14 KTS
Cloud Levels
  • Few at 2,500' AGL
  • Broken at 3,500' AGL

Dec-8@
02:00 UTC

Dec-8 @ 02:00 UTC

Dec-8@
10:00 UTC

Dec-8 @ 10:00 UTC

FM080200 16009KT P6SM SCT015 BKN025

From

From Standard forecast or significant change

Wind
  • 160° at 9 KTS
Cloud Levels
  • Scattered at 1,500' AGL
  • Broken at 2,500' AGL

Dec-8@
10:00 UTC

Dec-8 @ 10:00 UTC

Dec-9@
00:00 UTC

Dec-9 @ 00:00 UTC

FM081000 36006KT P6SM VCSH SCT010 OVC025

From

From Standard forecast or significant change

Wind
  • 360° at 6 KTS
Cloud Levels
  • Scattered at 1,000' AGL
  • Overcast at 2,500' AGL